• Join FlightAware (Why Join?)
  • Login
  • US Flag 
02:20AM EDT


 

Airport Tracker/Info


-or-


 

Live Flight TrackerFlight Track Log ✈ SWA3206 ✈ 05-May-2013 ✈ KMDW - KSAN

Flight Track Log - Related Links

Times and Time Zones

All times are in EDT time to prevent confusion due to time zone crossing. See the SWA3206 flight status page for this flight to view local times or setup timezone preferences in your user account.

Time Position Orientation Groundspeed Altitude Reporting Facility
EDT Latitude Longitude Course Direction KTS MPH feet Rate Location/Type
02:05PM 41.8333 -87.7667 258° West 205 236 3,000  Level Chicago TRACON
02:07PM 41.8000 -87.8500 242° Southwest 242 278 3,000 1,080 Level Chicago TRACON
02:08PM 41.7808 -87.9672 258° West 259 298 5,600 2,640 Climbing Chicago Center
02:09PM 41.7756 -88.0756 266° West 292 336 9,100 3,000 Climbing Chicago Center
02:10PM 41.7725 -88.1875 268° West 302 348 11,900 1,980 Climbing Chicago Center
02:11PM 41.6517 -88.6060 258° West  Level Estimated
02:11PM 41.7700 -88.3058 268° West 317 365 13,300  Level Chicago Center
02:12PM 41.7678 -88.4264 269° West 326 375 16,000 2,820 Climbing Chicago Center
02:13PM 41.7489 -88.5769 261° West 345 397 19,200 2,700 Climbing Chicago Center
02:14PM 41.7239 -88.7036 255° West 355 409 21,700 2,280 Climbing Chicago Center
02:15PM 41.6978 -88.8350 255° West 367 422 24,000 1,440 Climbing Chicago Center
02:16PM 41.6703 -88.9725 255° West 385 443 24,700 1,200 Climbing Chicago Center
02:17PM 41.6322 -89.1614 255° West 438 504 26,500 1,680 Climbing Chicago Center
02:18PM 41.5992 -89.3225 255° West 451 519 28,200 1,500 Climbing Chicago Center
02:19PM 41.5656 -89.4839 254° West 454 522 29,700 1,680 Climbing Chicago Center
02:20PM 41.5336 -89.6425 255° West 457 526 31,700 1,560 Climbing Chicago Center
02:21PM 41.5000 -89.8033 254° West 453 521 33,000 1,200 Climbing Chicago Center
02:22PM 41.4594 -89.9986 255° West 453 521 34,300 1,200 Climbing Chicago Center
02:23PM 41.4258 -90.1581 254° West 451 519 35,600 780 Climbing Chicago Center
02:24PM 41.3917 -90.3158 254° West 453 521 36,000 180 Climbing Chicago Center
02:25PM 41.3578 -90.4736 254° West 449 517 36,000  Level Chicago Center
02:26PM 41.3219 -90.6350 254° West 454 522 36,000  Level Chicago Center
02:27PM 41.2772 -90.7906 249° West 449 517 36,000  Level Chicago Center
02:29PM 41.2219 -90.9781 249° West 454 522 36,000  Level Chicago Center
02:30PM 41.1747 -91.1333 248° West 456 525 36,000  Level Chicago Center
02:31PM 41.1283 -91.2908 249° West 458 527 36,000  Level Chicago Center
02:32PM 41.0811 -91.4467 248° West 458 527 36,000  Level Chicago Center
02:33PM 41.0339 -91.6033 248° West 458 527 36,000  Level Chicago Center
02:34PM 40.9778 -91.7878 248° West 457 526 36,000  Level Chicago Center
02:35PM 40.9300 -91.9400 247° West 453 521 36,000  Level Chicago Center
02:36PM 40.8833 -92.0939 248° West 455 524 36,000  Level Chicago Center
02:37PM 40.8381 -92.2475 249° West 455 524 36,000  Level Chicago Center
02:38PM 40.8164 -92.4139 260° West 463 533 36,000  Level Chicago Center
02:39PM 40.7900 -92.6100 260° West 460 529 36,000  Level Chicago Center
02:40PM 40.7675 -92.7733 260° West 459 528 36,000  Level Chicago Center
02:41PM 40.7456 -92.9353 260° West 456 525 36,000 180 Level Chicago Center
02:42PM 40.7228 -93.0972 260° West 456 525 36,400 840 Climbing Chicago Center
02:43PM 40.6961 -93.2911 260° West 454 522 37,800 720 Climbing Chicago Center
02:44PM 40.6722 -93.4522 259° West 454 522 38,000 60 Climbing Chicago Center
02:45PM 40.6422 -93.6461 259° West 456 525 38,000  Level Minneapolis Center
02:46PM 40.6203 -93.8039 260° West 452 520 38,000  Level Minneapolis Center
02:47PM 40.5900 -93.9917 258° West 444 511 38,000  Level Minneapolis Center
02:48PM 40.5653 -94.1464 258° West 440 506 38,000  Level Minneapolis Center
02:49PM 40.5383 -94.3011 257° West 439 505 38,000  Level Minneapolis Center
02:51PM 40.5106 -94.4556 257° West 437 503 38,000  Level Minneapolis Center
02:52PM 40.4800 -94.6478 258° West 431 496 38,000  Level Minneapolis Center
02:53PM 40.4525 -94.8003 257° West 429 494 38,000  Level Minneapolis Center
02:54PM 40.4211 -94.9822 257° West 427 491 38,000  Level Minneapolis Center
02:55PM 40.3942 -95.1394 257° West 435 501 38,000  Level Minneapolis Center
02:56PM 40.3656 -95.2953 256° West 437 503 38,000  Level Minneapolis Center
02:57PM 40.3381 -95.4503 257° West 436 502 38,000  Level Minneapolis Center
02:58PM 40.3108 -95.6039 257° West 434 499 38,000  Level Minneapolis Center
02:59PM 40.2842 -95.7556 257° West 429 494 38,000  Level Minneapolis Center
03:01PM 40.2283 -96.0564 256° West 423 487 38,000  Level Minneapolis Center
03:02PM 40.1947 -96.2358 256° West 423 487 38,000  Level Minneapolis Center
03:04PM 40.1297 -96.5314 254° West 422 486 38,000  Level Minneapolis Center
03:05PM 40.0983 -96.6783 254° West 420 483 38,000  Level Minneapolis Center
03:06PM 40.0658 -96.8233 254° West 418 481 38,000  Level Minneapolis Center
03:07PM 40.0342 -96.9703 254° West 419 482 38,000  Level Minneapolis Center
03:08PM 40.0017 -97.1164 254° West 419 482 38,000  Level Minneapolis Center
03:09PM 39.9622 -97.2919 254° West 419 482 38,000  Level Minneapolis Center
03:10PM 39.9253 -97.4572 254° West 421 484 38,000  Level Minneapolis Center
03:12PM 39.8914 -97.6056 253° West 424 488 38,000  Level Minneapolis Center
03:13PM 39.8511 -97.7833 254° West 425 489 38,000  Level Minneapolis Center
03:14PM 39.8172 -97.9258 253° West 417 480 38,000  Level Minneapolis Center
03:15PM 39.7831 -98.0694 253° West 415 478 38,000  Level Minneapolis Center
03:16PM 39.7442 -98.2431 254° West 416 479 38,000  Level Minneapolis Center
03:17PM 39.7100 -98.3878 253° West 417 480 38,000  Level Minneapolis Center
03:18PM 39.6756 -98.5344 253° West 421 484 38,000  Level Minneapolis Center
03:19PM 39.6408 -98.6797 253° West 422 486 38,000  Level Minneapolis Center
03:20PM 39.6053 -98.8269 253° West 425 489 38,000  Level Minneapolis Center
03:21PM 39.5703 -98.9750 253° West 427 491 38,000  Level Minneapolis Center
03:22PM 39.5333 -99.1222 252° West 428 493 38,000  Level Minneapolis Center
03:23PM 39.5058 -99.2386 253° West 425 489 38,000  Level Minneapolis Center
03:23PM 39.4847 -99.3247 252° West 420 483 38,000  Level Denver Center
03:24PM 39.4531 -99.4500 252° West 408 470 38,000  Level Denver Center
03:25PM 39.4153 -99.6033 252° West 402 463 38,000  Level Denver Center
03:26PM 39.3822 -99.7367 252° West 404 465 38,000  Level Denver Center
03:27PM 39.3431 -99.8911 252° West 406 467 38,000  Level Denver Center
03:28PM 39.3108 -100.0192 252° West 396 456 38,000  Level Denver Center
03:29PM 39.2725 -100.1706 252° West 396 456 38,000  Level Denver Center
03:30PM 39.2431 -100.2986 254° West 390 449 38,000  Level Denver Center
03:31PM 39.2117 -100.4494 255° West 390 449 38,000  Level Denver Center
03:33PM 39.1844 -100.5797 255° West 392 451 38,000  Level Denver Center
03:34PM 39.1567 -100.7089 255° West 391 450 38,000  Level Denver Center
03:35PM 39.1233 -100.8603 254° West 393 452 38,000  Level Denver Center
03:36PM 39.0953 -100.9917 255° West 397 457 38,000  Level Denver Center
03:37PM 39.0622 -101.1489 255° West 405 466 38,000  Level Denver Center
03:38PM 39.0292 -101.2939 254° West 396 456 38,000  Level Denver Center
03:39PM 39.0006 -101.4256 254° West 400 460 38,000  Level Denver Center
03:40PM 38.9722 -101.5558 254° West 398 458 38,000  Level Denver Center
03:41PM 38.9378 -101.7092 254° West 400 460 38,000  Level Denver Center
03:42PM 38.9083 -101.8408 254° West 403 464 38,000  Level Denver Center
03:43PM 38.8683 -101.9928 251° West 405 466 38,000  Level Denver Center
03:44PM 38.8289 -102.1200 248° West 403 464 38,000  Level Denver Center
03:45PM 38.7836 -102.2686 249° West 402 463 38,000  Level Denver Center
03:46PM 38.7447 -102.3956 249° West 401 461 38,000  Level Denver Center
03:47PM 38.7003 -102.5422 249° West 399 459 38,000  Level Denver Center
03:48PM 38.6617 -102.6669 248° West 395 455 38,000  Level Denver Center
03:49PM 38.6206 -102.8006 249° West 397 457 38,000  Level Denver Center
03:50PM 38.5797 -102.9322 248° West 396 456 38,000  Level Denver Center
03:51PM 38.5450 -103.0419 248° West 397 457 38,000  Level Denver Center
03:52PM 38.4933 -103.2089 248° West 395 455 38,000  Level Denver Center
03:53PM 38.4397 -103.3753 248° West 398 458 38,000  Level Denver Center
03:54PM 38.3950 -103.5192 248° West 401 461 38,000  Level Denver Center
03:55PM 38.3553 -103.6442 248° West 400 460 38,000  Level Denver Center
03:56PM 38.3147 -103.7678 247° West 399 459 38,000  Level Denver Center
03:58PM 38.2756 -103.8908 248° West 395 455 38,000  Level Denver Center
03:59PM 38.2286 -104.0367 248° West 400 460 38,000  Level Denver Center
04:00PM 38.1819 -104.1817 248° West 400 460 38,000  Level Denver Center
04:01PM 38.1408 -104.3047 247° West 398 458 38,000  Level Denver Center
04:02PM 38.0942 -104.4478 248° West 394 453 38,000  Level Denver Center
04:03PM 38.0539 -104.5694 247° West 393 452 38,000  Level Denver Center
04:04PM 38.0072 -104.7117 247° West 393 452 38,000  Level Denver Center
04:05PM 37.9667 -104.8319 247° West 390 449 38,000  Level Denver Center
04:06PM 37.9200 -104.9725 247° West 388 447 38,000  Level Denver Center
04:07PM 37.8803 -105.0925 247° West 387 445 38,000  Level Denver Center
04:08PM 37.8328 -105.2331 247° West 389 448 38,000  Level Denver Center
04:09PM 37.7917 -105.3536 247° West 390 449 38,000  Level Denver Center
04:10PM 37.7431 -105.4947 246° West 394 453 38,000  Level Denver Center
04:11PM 37.6992 -105.6192 246° West 402 463 38,000  Level Denver Center
04:12PM 37.6506 -105.7639 247° West 401 461 38,000  Level Denver Center
04:13PM 37.6089 -105.8872 247° West 400 460 38,000  Level Denver Center
04:14PM 37.5661 -106.0086 246° West 397 457 38,000  Level Denver Center
04:15PM 37.5158 -106.1514 246° West 394 453 38,000  Level Denver Center
04:16PM 37.4739 -106.2719 246° West 393 452 38,000  Level Denver Center
04:17PM 37.4250 -106.4125 246° West 392 451 38,000  Level Denver Center
04:18PM 37.3828 -106.5314 246° West 389 448 38,000  Level Denver Center
04:19PM 37.3331 -106.6719 246° West 392 451 38,000  Level Denver Center
04:20PM 37.2914 -106.7919 246° West 393 452 38,000  Level Denver Center
04:21PM 37.2417 -106.9333 246° West 397 457 38,000  Level Denver Center
04:22PM 37.1983 -107.0536 246° West 397 457 38,000  Level Denver Center
04:23PM 37.1467 -107.1942 245° Southwest 398 458 38,000  Level Denver Center
04:24PM 37.1036 -107.3147 246° West 396 456 38,000  Level Denver Center
04:26PM 37.0528 -107.4542 245° Southwest 396 456 38,000  Level Denver Center
04:27PM 37.0028 -107.5906 245° Southwest 390 449 38,000  Level Denver Center
04:28PM 36.9519 -107.7297 245° Southwest 394 453 38,000  Level Denver Center
04:29PM 36.9081 -107.8469 245° Southwest 391 450 38,000  Level Denver Center
04:30PM 36.8725 -107.9464 246° West 392 451 38,000  Level Denver Center
04:31PM 36.8147 -108.1050 246° West 392 451 38,000  Level Denver Center
04:32PM 36.7631 -108.2397 244° Southwest 389 448 38,000  Level Denver Center
04:33PM 36.7194 -108.3572 245° Southwest 389 448 38,000  Level Denver Center
04:34PM 36.6675 -108.4964 245° Southwest 395 455 38,000  Level Denver Center
04:35PM 36.6233 -108.6142 245° Southwest 395 455 38,000  Level Denver Center
04:36PM 36.5633 -108.7714 245° Southwest 395 455 38,000  Level Denver Center
04:37PM 36.5183 -108.8892 245° Southwest 395 455 38,000  Level Denver Center
04:38PM 36.4664 -109.0242 244° Southwest 392 451 38,000  Level Denver Center
04:39PM 36.4231 -109.1394 245° Southwest 388 447 38,000  Level Denver Center
04:40PM 36.3717 -109.2731 244° Southwest 388 447 38,000  Level Denver Center
04:41PM 36.3269 -109.3875 244° Southwest 388 447 38,000  Level Denver Center
04:42PM 36.2753 -109.5203 244° Southwest 385 443 38,000  Level Denver Center
04:43PM 36.2308 -109.6358 245° Southwest 387 445 38,000  Level Denver Center
04:44PM 36.1781 -109.7700 244° Southwest 389 448 38,000  Level Denver Center
04:45PM 36.1319 -109.8872 244° Southwest 394 453 38,000  Level Denver Center
04:46PM 36.0789 -110.0239 244° Southwest 396 456 38,000  Level Denver Center
04:47PM 36.0350 -110.1308 243° Southwest 394 453 38,000  Level Denver Center
04:49PM 35.9872 -110.2528 244° Southwest 394 453 38,000  Level Denver Center
04:50PM 35.9297 -110.3978 244° Southwest 393 452 38,000  Level Denver Center
04:51PM 35.8819 -110.5181 244° Southwest 391 450 38,000  Level Denver Center
04:52PM 35.8325 -110.6389 243° Southwest 393 452 38,000  Level Denver Center
04:53PM 35.7847 -110.7586 244° Southwest 391 450 38,000  Level Denver Center
04:54PM 35.7297 -110.8867 242° Southwest 388 447 38,000  Level Albuquerque Center
04:55PM 35.6758 -111.0186 243° Southwest 386 444 38,000  Level Albuquerque Center
04:56PM 35.6317 -111.1328 245° Southwest 387 445 38,000  Level Albuquerque Center
04:57PM 35.5753 -111.2625 242° Southwest 386 444 38,000  Level Albuquerque Center
04:58PM 35.5283 -111.3756 243° Southwest 388 447 38,000  Level Albuquerque Center
04:59PM 35.4794 -111.5006 244° Southwest 398 458 38,000  Level Albuquerque Center
05:00PM 35.4314 -111.6183 243° Southwest 392 451 38,000  Level Albuquerque Center
05:01PM 35.3822 -111.7342 243° Southwest 386 444 38,000  Level Albuquerque Center
05:02PM 35.3244 -111.8744 243° Southwest 385 443 38,000  Level Albuquerque Center
05:03PM 35.2761 -111.9906 243° Southwest 384 442 38,000  Level Albuquerque Center
05:04PM 35.2283 -112.1056 243° Southwest 382 440 38,000  Level Albuquerque Center
05:05PM 35.1794 -112.2197 242° Southwest 380 437 38,000  Level Albuquerque Center
05:06PM 35.1314 -112.3336 243° Southwest 379 436 38,000  Level Albuquerque Center
05:08PM 35.0239 -112.5864 243° Southwest 380 437 38,000  Level Albuquerque Center
05:09PM 34.9756 -112.7006 243° Southwest 379 436 38,000  Level Albuquerque Center
05:10PM 34.9267 -112.8139 242° Southwest 377 434 38,000  Level Albuquerque Center
05:11PM 34.8789 -112.9269 243° Southwest 376 433 38,000 -300 Level Albuquerque Center
05:12PM 34.8289 -113.0394 242° Southwest 377 434 37,400 -780 Descending Albuquerque Center
05:13PM 34.7797 -113.1539 242° Southwest 381 438 36,500 -900 Descending Albuquerque Center
05:14PM 34.7294 -113.2697 242° Southwest 385 443 35,600 -1,020 Descending Albuquerque Center
05:15PM 34.6692 -113.4072 242° Southwest 385 443 34,400 -780 Descending Albuquerque Center
05:16PM 34.6192 -113.5200 242° Southwest 383 441 34,000 -240 Descending Albuquerque Center
05:18PM 34.5694 -113.6333 242° Southwest 381 438 34,000  Level Albuquerque Center
05:19PM 34.5128 -113.7606 242° Southwest 376 433 34,000  Level Albuquerque Center
05:20PM 34.4642 -113.8733 242° Southwest 376 433 34,000  Level Albuquerque Center
05:21PM 34.4147 -113.9853 242° Southwest 376 433 34,000 -60 Level Albuquerque Center
05:22PM 34.3653 -114.0956 242° Southwest 373 429 33,900 -720 Descending Albuquerque Center
05:24PM 34.2689 -114.3103 242° Southwest 361 415 31,800 -1,020 Descending Albuquerque Center
05:25PM 34.2231 -114.4139 242° Southwest 355 409 30,800 -1,140 Descending Albuquerque Center
05:25PM 34.1975 -114.4689 241° Southwest 351 404 30,200 -1,140 Descending Los Angeles Center
05:26PM 34.1517 -114.5725 242° Southwest 350 403 29,200 -1,020 Descending Los Angeles Center
05:27PM 34.1067 -114.6731 242° Southwest 342 394 28,200 -600 Descending Los Angeles Center
05:28PM 34.0617 -114.7722 241° Southwest 338 389 28,000 -120 Descending Los Angeles Center
05:29PM 34.0181 -114.8753 243° Southwest 345 397 28,000  Level Los Angeles Center
05:30PM 33.9603 -115.0033 241° Southwest 360 414 28,000  Level Los Angeles Center
05:31PM 33.9125 -115.1108 242° Southwest 363 418 28,000  Level Los Angeles Center
05:32PM 33.8647 -115.2186 242° Southwest 365 420 28,000  Level Los Angeles Center
05:33PM 33.8169 -115.3272 242° Southwest 368 423 28,000  Level Los Angeles Center
05:34PM 33.7683 -115.4339 241° Southwest 366 421 28,000  Level Los Angeles Center
05:36PM 33.7094 -115.5650 242° Southwest 371 427 28,000 -60 Level Los Angeles Center
05:37PM 33.6600 -115.6733 241° Southwest 372 428 27,900 -240 Descending Los Angeles Center
05:38PM 33.6117 -115.7789 241° Southwest 365 420 27,600 -1,260 Descending Los Angeles Center
05:39PM 33.5567 -115.8719 235° Southwest 348 400 25,400 -1,800 Descending Los Angeles Center
05:40PM 33.5028 -115.9642 235° Southwest 340 391 24,000 -660 Descending Los Angeles Center
05:41PM 33.4294 -116.0933 236° Southwest 337 388 24,000 -660 Level Los Angeles Center
05:42PM 33.3756 -116.1850 235° Southwest 338 389 22,600 -1,980 Descending Los Angeles Center
05:43PM 33.3111 -116.2650 226° Southwest 340 391 20,000 -2,580 Descending Los Angeles Center
05:44PM 33.2236 -116.3167 206° Southwest 348 400 17,300 -2,340 Descending Los Angeles Center
05:45PM 33.1369 -116.3669 206° Southwest 348 400 15,200 -2,280 Descending Los Angeles Center
05:46PM 33.0403 -116.4233 206° Southwest 335 386 12,700 -1,560 Descending Los Angeles Center
05:47PM 32.9633 -116.4678 206° Southwest 316 364 12,000 -660 Descending Los Angeles Center
05:48PM 32.8917 -116.5100 206° Southwest 296 341 11,400 -840 Descending Los Angeles Center
05:49PM 32.8306 -116.5608 215° Southwest 296 341 10,300 -1,020 Descending Los Angeles Center
05:50PM 32.7967 -116.6308 240° Southwest 258 297 9,400 -1,200 Descending Los Angeles Center
05:51PM 32.7589 -116.7133 241° Southwest 241 277 7,900 -1,200 Descending Los Angeles Center
05:52PM 32.7319 -116.7825 245° Southwest 233 268 6,900 -1,080 Descending Los Angeles Center
05:54PM 32.6800 -116.9128 245° Southwest 219 252 4,700 -1,140 Descending Los Angeles Center
05:55PM 32.6833 -116.9833 273° West 203 234 3,500 -1,200 Descending Southern California TRACON
05:56PM 32.7000 -117.0500 287° West 185 213 2,400 -1,020 Descending Southern California TRACON
05:57PM 32.7167 -117.1000 292° West 163 188 1,400 -900 Descending Southern California TRACON
05:58PM 32.7167 -117.1500 270° West 142 163 600 -540 Descending Southern California TRACON
06:00PM 32.7344 -117.1883 299° West 151 174 300 -300 Descending Los Angeles Center
06:02PM 32.7333 -117.1833 281° West  Level FlightAware Approximate